Time;durP1;ratioP1;P1;durP2;ratioP2;P2;SDS_P1;SDS_P2;PMS_P1;PMS_P2;Temp;Humidity;BMP_temperature;BMP_pressure;BME280_temperature;BME280_humidity;BME280_pressure;Samples;Min_cycle;Max_cycle;Signal;HPM_P1;HPM_P2
2022/10/20 00:01:09;;;;;;;;;12.25;10.25;;;;;19.18;65.52;100612.63;5080889;27;47470;-52
2022/10/20 00:03:35;;;;;;;;;13.00;10.75;;;;;19.20;65.29;100619.53;5087279;27;46272;-50
2022/10/20 00:06:11;;;;;;;;;12.50;11.50;;;;;19.20;64.99;100614.22;5093810;27;47623;-55
2022/10/20 00:08:38;;;;;;;;;14.50;11.25;;;;;19.21;65.54;100613.28;5096901;27;45537;-52
2022/10/20 00:11:03;;;;;;;;;13.50;11.00;;;;;19.21;65.59;100625.69;5098653;27;45492;-52
2022/10/20 00:13:29;;;;;;;;;15.00;11.25;;;;;19.21;65.57;100626.56;5080294;27;46362;-51
2022/10/20 00:15:55;;;;;;;;;15.25;12.75;;;;;19.22;65.34;100622.94;5095055;27;66625;-53
2022/10/20 00:18:21;;;;;;;;;17.25;16.25;;;;;19.22;65.30;100617.63;5089746;27;45553;-53
2022/10/20 00:20:46;;;;;;;;;14.75;11.75;;;;;19.22;65.51;100625.59;5090668;27;45569;-51
2022/10/20 00:23:12;;;;;;;;;14.00;12.50;;;;;19.22;65.33;100624.75;5094180;27;74925;-52
2022/10/20 00:25:37;;;;;;;;;13.25;11.25;;;;;19.23;65.59;100626.44;5091777;27;45585;-50
2022/10/20 00:28:03;;;;;;;;;15.25;12.00;;;;;19.22;65.32;100620.28;5099741;27;45196;-53
2022/10/20 00:30:28;;;;;;;;;15.75;13.75;;;;;19.23;65.04;100611.38;5097693;27;45458;-53
2022/10/20 00:32:53;;;;;;;;;16.75;12.00;;;;;19.23;65.29;100603.41;5101515;27;66520;-51
2022/10/20 00:35:19;;;;;;;;;16.25;13.00;;;;;19.21;65.47;100599.16;5094244;27;67395;-52
2022/10/20 00:37:44;;;;;;;;;16.00;13.25;;;;;19.19;65.37;100601.91;5086338;27;45221;-54
2022/10/20 00:40:10;;;;;;;;;11.50;11.00;;;;;19.17;65.53;100603.81;5093801;27;63695;-53
2022/10/20 00:42:35;;;;;;;;;13.25;11.00;;;;;19.14;65.38;100598.69;5049878;27;48896;-53
2022/10/20 00:45:01;;;;;;;;;13.50;9.75;;;;;19.14;64.88;100604.00;5098074;27;45461;-52
2022/10/20 00:47:44;;;;;;;;;13.75;12.25;;;;;19.12;65.43;100604.13;5094104;27;45306;-50
2022/10/20 00:50:14;;;;;;;;;16.00;12.25;;;;;19.12;65.32;100592.63;5099633;27;45344;-49
2022/10/20 00:52:40;;;;;;;;;13.25;9.75;;;;;19.11;65.45;100599.75;5082758;27;46349;-53
2022/10/20 00:55:07;;;;;;;;;23.50;13.00;;;;;19.09;65.35;100588.41;5099353;27;45459;-53
2022/10/20 00:57:32;;;;;;;;;15.00;12.50;;;;;19.10;65.15;100589.25;5093205;27;45530;-51
2022/10/20 00:59:58;;;;;;;;;15.00;12.00;;;;;19.10;65.25;100584.78;5075195;27;45530;-53
2022/10/20 01:02:23;;;;;;;;;15.25;10.50;;;;;19.09;65.63;100592.88;5077719;27;47135;-53
2022/10/20 01:04:49;;;;;;;;;15.50;13.25;;;;;19.08;65.26;100594.63;5073919;27;45238;-51
2022/10/20 01:07:14;;;;;;;;;12.75;12.00;;;;;19.11;65.46;100586.50;5090565;27;63231;-51
2022/10/20 01:09:40;;;;;;;;;14.25;13.00;;;;;19.10;65.43;100576.81;5089881;27;64182;-51
2022/10/20 01:12:14;;;;;;;;;8.75;7.00;;;;;19.11;65.29;100572.38;5099460;27;46465;-51
2022/10/20 01:14:42;;;;;;;;;17.50;14.00;;;;;19.08;65.51;100575.22;5089785;27;45404;-49
2022/10/20 01:17:29;;;;;;;;;18.50;13.75;;;;;19.05;65.33;100584.25;5062899;27;45459;-52
2022/10/20 01:20:13;;;;;;;;;18.75;14.25;;;;;19.04;65.27;100587.00;5093834;27;45323;-48
2022/10/20 01:23:10;;;;;;;;;13.50;13.50;;;;;19.01;65.72;100596.00;5091950;27;46026;-52
2022/10/20 01:25:57;;;;;;;;;14.25;14.00;;;;;18.97;65.70;100592.69;5076914;27;46006;-48
2022/10/20 01:28:37;;;;;;;;;17.25;12.00;;;;;18.93;65.66;100577.09;5094244;27;45475;-49
2022/10/20 01:31:13;;;;;;;;;11.50;10.00;;;;;18.88;65.79;100593.28;5077150;27;45327;-49
2022/10/20 01:34:01;;;;;;;;;15.00;12.00;;;;;18.84;65.81;100606.81;5095194;27;45709;-51
2022/10/20 01:36:55;;;;;;;;;14.50;11.25;;;;;18.82;65.78;100598.97;5056106;27;45453;-53
2022/10/20 01:39:30;;;;;;;;;16.00;13.00;;;;;18.84;65.86;100596.22;5090216;27;45291;-49
2022/10/20 01:42:04;;;;;;;;;11.00;11.00;;;;;18.84;66.01;100593.56;5088595;27;45351;-50
2022/10/20 01:44:31;;;;;;;;;11.50;10.75;;;;;18.84;66.17;100589.13;5087766;27;45456;-50
2022/10/20 01:46:57;;;;;;;;;14.75;11.75;;;;;18.86;66.11;100600.50;5098422;27;45731;-53
2022/10/20 01:49:24;;;;;;;;;9.50;9.00;;;;;18.87;66.04;100618.09;5085163;27;45272;-54
2022/10/20 01:51:49;;;;;;;;;11.25;9.50;;;;;18.89;66.05;100631.25;5092923;27;45241;-52
2022/10/20 01:54:23;;;;;;;;;12.50;10.50;;;;;18.90;65.74;100647.06;5095597;27;46061;-53
2022/10/20 01:57:10;;;;;;;;;13.50;10.75;;;;;18.92;66.02;100645.16;5092087;27;45481;-53
2022/10/20 01:59:52;;;;;;;;;12.50;11.25;;;;;18.92;65.90;100645.16;5089998;27;45434;-50
2022/10/20 02:02:52;;;;;;;;;14.25;12.75;;;;;18.94;66.01;100642.41;5078212;27;45468;-52
2022/10/20 02:05:50;;;;;;;;;11.75;10.75;;;;;18.94;66.05;100624.69;5091223;27;46427;-52
2022/10/20 02:08:40;;;;;;;;;17.00;11.75;;;;;18.94;65.86;100608.78;5078570;27;45377;-52
2022/10/20 02:11:11;;;;;;;;;12.75;11.00;;;;;18.92;65.94;100599.25;5093568;27;45406;-52
2022/10/20 02:13:37;;;;;;;;;10.50;9.25;;;;;18.93;65.84;100593.00;5079564;27;45660;-49
2022/10/20 02:16:12;;;;;;;;;15.00;12.00;;;;;18.95;65.73;100573.38;5070667;27;69474;-53
2022/10/20 02:18:42;;;;;;;;;11.00;9.25;;;;;18.95;66.02;100573.38;5078316;27;45819;-50
2022/10/20 02:21:08;;;;;;;;;10.25;9.25;;;;;18.96;65.99;100553.00;5096552;27;45251;-50
2022/10/20 02:23:38;;;;;;;;;11.50;9.00;;;;;18.93;65.71;100532.84;5070439;27;45445;-50
2022/10/20 02:26:07;;;;;;;;;11.25;9.75;;;;;18.92;66.40;100519.69;5080907;27;45504;-51
2022/10/20 02:28:34;;;;;;;;;16.75;9.00;;;;;18.90;66.13;100530.41;5075069;27;45486;-52
2022/10/20 02:31:01;;;;;;;;;13.50;10.00;;;;;18.91;66.24;100547.16;5094301;27;45499;-50
2022/10/20 02:33:27;;;;;;;;;9.25;8.00;;;;;18.91;66.49;100544.50;5071812;27;45514;-53
2022/10/20 02:35:58;;;;;;;;;11.25;10.00;;;;;18.91;66.53;100539.19;5088827;27;45556;-52
2022/10/20 02:38:23;;;;;;;;;8.00;4.50;;;;;18.93;66.56;100505.50;5089912;27;45412;-50
2022/10/20 02:40:48;;;;;;;;;10.25;7.50;;;;;18.94;66.62;100478.84;5092511;27;64573;-53
2022/10/20 02:43:14;;;;;;;;;8.25;4.25;;;;;18.95;66.42;100463.81;5084044;27;71454;-53
2022/10/20 02:45:39;;;;;;;;;13.00;7.00;;;;;18.97;66.09;100448.63;5083928;27;45443;-49
2022/10/20 02:48:07;;;;;;;;;8.50;6.00;;;;;18.97;66.42;100456.59;5097195;27;72076;-50
2022/10/20 02:50:32;;;;;;;;;14.25;7.75;;;;;19.00;66.56;100460.84;5095572;27;45418;-52
2022/10/20 02:52:58;;;;;;;;;7.00;5.75;;;;;19.03;66.16;100460.63;5087515;27;60705;-53
2022/10/20 02:55:23;;;;;;;;;12.25;6.00;;;;;19.05;65.95;100471.97;5087903;27;61036;-51
2022/10/20 02:57:48;;;;;;;;;8.25;5.25;;;;;19.06;65.94;100461.28;5076219;27;72066;-50
2022/10/20 03:00:14;;;;;;;;;8.75;5.00;;;;;19.10;66.33;100464.56;5071763;27;45353;-49
2022/10/20 03:02:39;;;;;;;;;7.25;5.50;;;;;19.12;65.71;100470.63;5088928;27;45346;-51
2022/10/20 03:05:05;;;;;;;;;6.50;6.25;;;;;19.14;65.90;100479.31;5075573;27;47130;-54
2022/10/20 03:07:30;;;;;;;;;6.50;5.50;;;;;19.15;65.39;100481.03;5093900;27;45491;-53
2022/10/20 03:09:55;;;;;;;;;5.00;5.00;;;;;19.17;65.56;100495.03;5090937;27;58811;-54
2022/10/20 03:12:21;;;;;;;;;7.50;5.00;;;;;19.20;65.59;100501.97;5104865;27;69659;-53
2022/10/20 03:14:46;;;;;;;;;8.00;5.25;;;;;19.24;65.43;100511.41;5101082;27;46445;-54
2022/10/20 03:17:11;;;;;;;;;7.00;4.25;;;;;19.28;65.32;100523.50;5096016;27;45383;-53
2022/10/20 03:19:37;;;;;;;;;7.75;5.50;;;;;19.30;65.38;100514.50;5095795;27;45493;-53
2022/10/20 03:22:02;;;;;;;;;5.25;5.00;;;;;19.34;65.60;100517.81;5097144;27;68108;-54
2022/10/20 03:24:27;;;;;;;;;10.50;6.50;;;;;19.38;65.36;100515.78;5078230;27;46073;-53
2022/10/20 03:26:53;;;;;;;;;4.75;4.00;;;;;19.40;65.70;100503.25;5095967;27;65662;-51
2022/10/20 03:29:18;;;;;;;;;10.00;5.25;;;;;19.43;65.22;100503.06;5093144;27;61822;-53
2022/10/20 03:31:44;;;;;;;;;4.50;4.25;;;;;19.44;65.39;100500.31;5089739;27;58171;-54
2022/10/20 03:34:11;;;;;;;;;6.00;5.00;;;;;19.47;65.57;100516.00;5078969;27;49336;-51
2022/10/20 03:36:36;;;;;;;;;6.50;5.00;;;;;19.50;65.39;100523.75;5071425;27;45760;-52
2022/10/20 03:39:02;;;;;;;;;4.25;4.25;;;;;19.52;65.24;100523.66;5080596;27;45250;-55
2022/10/20 03:41:27;;;;;;;;;7.00;5.00;;;;;19.54;65.68;100521.75;5096416;27;45395;-54
2022/10/20 03:43:53;;;;;;;;;7.25;5.50;;;;;19.56;65.34;100519.84;5096468;27;46011;-54
2022/10/20 03:46:18;;;;;;;;;6.75;6.00;;;;;19.57;65.65;100520.72;5095404;27;72179;-54
2022/10/20 03:48:43;;;;;;;;;9.25;6.00;;;;;19.58;65.12;100528.53;5091139;27;45275;-49
2022/10/20 03:51:10;;;;;;;;;7.00;5.00;;;;;19.58;65.56;100543.63;5100239;27;69432;-51
2022/10/20 03:53:36;;;;;;;;;7.50;6.00;;;;;19.57;65.55;100548.09;5079370;27;48225;-49
2022/10/20 03:56:08;;;;;;;;;10.25;6.25;;;;;19.57;65.58;100549.91;5100308;27;45489;-55
2022/10/20 03:58:33;;;;;;;;;9.00;7.25;;;;;19.58;65.89;100552.44;5090589;27;45418;-51
2022/10/20 04:00:59;;;;;;;;;8.25;6.50;;;;;19.58;65.85;100548.94;5074999;27;45528;-52
2022/10/20 04:03:24;;;;;;;;;7.00;6.00;;;;;19.58;66.26;100540.97;5083832;27;69720;-50
2022/10/20 04:05:50;;;;;;;;;12.50;7.00;;;;;19.57;65.85;100552.56;5087244;27;67382;-53
2022/10/20 04:08:15;;;;;;;;;6.75;5.00;;;;;19.56;66.32;100564.13;5098627;27;69364;-51
2022/10/20 04:10:40;;;;;;;;;9.00;7.50;;;;;19.54;66.66;100541.16;5099816;27;70947;-53
2022/10/20 04:13:05;;;;;;;;;8.00;6.75;;;;;19.53;66.90;100531.53;5100226;27;45901;-51
2022/10/20 04:15:31;;;;;;;;;9.50;6.50;;;;;19.51;67.09;100525.47;5077359;27;72023;-53
2022/10/20 04:17:56;;;;;;;;;10.50;8.00;;;;;19.51;67.18;100509.56;5096162;27;45839;-53
2022/10/20 04:20:22;;;;;;;;;8.00;6.25;;;;;19.50;67.21;100512.31;5095549;27;45310;-54
2022/10/20 04:22:47;;;;;;;;;6.75;6.50;;;;;19.46;67.60;100509.00;5097419;27;46854;-51
2022/10/20 04:25:12;;;;;;;;;10.75;7.50;;;;;19.46;68.08;100510.78;5095225;27;65069;-50
2022/10/20 04:27:41;;;;;;;;;11.75;6.00;;;;;19.43;67.50;100511.88;5097574;27;54707;-49
2022/10/20 04:30:08;;;;;;;;;12.25;8.00;;;;;19.41;67.48;100511.13;5095226;27;45292;-53
2022/10/20 04:32:33;;;;;;;;;14.25;8.50;;;;;19.38;67.81;100491.91;5090877;27;46313;-52
2022/10/20 04:34:58;;;;;;;;;8.00;7.75;;;;;19.37;67.64;100483.09;5092404;27;66432;-54
2022/10/20 04:37:24;;;;;;;;;8.50;7.00;;;;;19.36;67.76;100486.69;5092628;27;68633;-49
2022/10/20 04:39:50;;;;;;;;;10.00;7.25;;;;;19.36;68.03;100502.63;5077557;27;45555;-52
2022/10/20 04:42:16;;;;;;;;;8.75;7.50;;;;;19.35;67.86;100523.00;5099627;27;45306;-50
2022/10/20 04:44:41;;;;;;;;;8.75;6.00;;;;;19.35;68.22;100514.19;5075168;27;45795;-52
2022/10/20 04:47:07;;;;;;;;;11.25;8.00;;;;;19.32;68.38;100517.91;5094885;27;47217;-51
2022/10/20 04:49:32;;;;;;;;;7.50;7.25;;;;;19.32;68.06;100515.25;5082905;27;45521;-50
2022/10/20 04:51:57;;;;;;;;;8.00;7.00;;;;;19.30;68.66;100517.16;5096384;27;45395;-53
2022/10/20 04:54:23;;;;;;;;;11.00;8.25;;;;;19.30;68.54;100511.84;5077101;27;45447;-51
2022/10/20 04:56:48;;;;;;;;;12.00;7.00;;;;;19.30;67.98;100500.38;5097172;27;51685;-54
2022/10/20 04:59:13;;;;;;;;;8.50;7.50;;;;;19.30;68.37;100501.25;5075582;27;68632;-49
2022/10/20 05:01:39;;;;;;;;;10.75;7.75;;;;;19.31;68.24;100492.31;5092835;27;71450;-51
2022/10/20 05:04:04;;;;;;;;;13.25;9.25;;;;;19.30;68.64;100487.09;5079092;27;45327;-53
2022/10/20 05:06:31;;;;;;;;;8.50;7.50;;;;;19.30;68.35;100500.38;5062807;27;45582;-53
2022/10/20 05:08:59;;;;;;;;;12.00;7.25;;;;;19.29;68.31;100525.22;5097369;27;45605;-53
2022/10/20 05:11:26;;;;;;;;;10.50;7.00;;;;;19.28;68.54;100505.81;5098462;27;45228;-50
2022/10/20 05:13:51;;;;;;;;;8.50;7.00;;;;;19.28;68.32;100528.81;5073110;28;45459;-51
2022/10/20 05:16:17;;;;;;;;;8.50;5.75;;;;;19.26;68.57;100522.75;5091633;27;45485;-51
2022/10/20 05:18:43;;;;;;;;;7.25;6.75;;;;;19.25;68.27;100534.34;5088211;27;45365;-52
2022/10/20 05:21:10;;;;;;;;;8.50;7.50;;;;;19.24;68.22;100522.00;5090258;27;45394;-52
2022/10/20 05:23:37;;;;;;;;;7.00;5.50;;;;;19.22;68.40;100521.28;5092575;27;45431;-52
2022/10/20 05:26:04;;;;;;;;;8.25;7.00;;;;;19.23;68.36;100515.00;5095968;27;45572;-53
2022/10/20 05:28:29;;;;;;;;;8.50;6.50;;;;;19.24;68.74;100545.91;5093839;27;45449;-50
2022/10/20 05:30:54;;;;;;;;;7.50;7.50;;;;;19.20;68.52;100539.94;5094775;27;45641;-51
2022/10/20 05:33:20;;;;;;;;;8.50;6.00;;;;;19.24;68.79;100536.13;5094287;27;44722;-54
2022/10/20 05:35:45;;;;;;;;;7.25;5.50;;;;;19.25;68.52;100535.19;5092530;27;45330;-50
2022/10/20 05:38:10;;;;;;;;;9.75;7.25;;;;;19.26;68.34;100536.88;5099067;27;45582;-53
2022/10/20 05:40:36;;;;;;;;;9.00;7.00;;;;;19.26;68.77;100543.97;5075504;27;75875;-49
2022/10/20 05:43:01;;;;;;;;;10.00;6.50;;;;;19.26;68.49;100539.53;5099020;27;65637;-51
2022/10/20 05:45:26;;;;;;;;;9.75;7.00;;;;;19.27;68.92;100535.09;5089458;27;45475;-48
2022/10/20 05:47:52;;;;;;;;;9.25;8.00;;;;;19.24;68.76;100536.13;5093232;27;71904;-49
2022/10/20 05:50:17;;;;;;;;;7.00;6.00;;;;;19.24;68.44;100535.28;5092877;27;73431;-49
2022/10/20 05:52:42;;;;;;;;;9.50;6.75;;;;;19.24;68.12;100522.00;5095493;27;45539;-52
2022/10/20 05:55:08;;;;;;;;;7.25;4.00;;;;;19.21;67.95;100515.13;5097253;27;62793;-50
2022/10/20 05:57:34;;;;;;;;;8.25;6.00;;;;;19.21;68.36;100516.91;5100492;27;45426;-51
2022/10/20 05:59:59;;;;;;;;;13.75;13.25;;;;;19.21;68.23;100514.25;5077793;28;46231;-50
2022/10/20 06:02:24;;;;;;;;;9.50;7.25;;;;;19.20;68.34;100515.22;5071723;28;69807;-52
2022/10/20 06:04:50;;;;;;;;;8.00;6.75;;;;;19.20;67.97;100513.41;5093966;27;55325;-54
2022/10/20 06:07:15;;;;;;;;;6.50;6.25;;;;;19.19;68.12;100497.59;5093360;27;58817;-53
2022/10/20 06:09:40;;;;;;;;;7.50;6.00;;;;;19.16;68.06;100490.72;5074582;27;52645;-51
2022/10/20 06:12:06;;;;;;;;;7.00;4.75;;;;;19.14;67.99;100488.16;5095084;27;71515;-49
2022/10/20 06:14:31;;;;;;;;;10.50;6.00;;;;;19.14;67.55;100463.41;5074507;27;45361;-52
2022/10/20 06:16:57;;;;;;;;;7.00;4.50;;;;;19.11;67.89;100445.91;5096567;27;66535;-50
2022/10/20 06:19:23;;;;;;;;;4.50;4.00;;;;;19.10;67.44;100432.75;5095502;27;72418;-50
2022/10/20 06:21:49;;;;;;;;;5.00;4.00;;;;;19.00;67.08;100406.00;5095344;27;45508;-50
2022/10/20 06:24:16;;;;;;;;;6.25;4.00;;;;;18.87;67.06;100405.97;5094803;27;45913;-54
2022/10/20 06:26:42;;;;;;;;;12.00;6.00;;;;;18.76;67.39;100405.81;5098522;27;45948;-52
2022/10/20 06:29:10;;;;;;;;;6.25;5.00;;;;;18.68;67.35;100393.06;5085880;27;46223;-49
2022/10/20 06:31:41;;;;;;;;;5.00;5.00;;;;;18.62;67.67;100385.53;5091569;27;45454;-53
2022/10/20 06:34:14;;;;;;;;;4.25;3.50;;;;;18.55;67.65;100392.19;5099833;27;45433;-53
2022/10/20 06:36:41;;;;;;;;;7.50;4.00;;;;;18.50;67.82;100391.63;5079218;27;45463;-54
2022/10/20 06:39:07;;;;;;;;;10.00;6.25;;;;;18.43;67.97;100396.47;5094991;27;47156;-50
2022/10/20 06:41:33;;;;;;;;;25.25;19.25;;;;;18.44;68.05;100389.41;5084265;27;45266;-53
2022/10/20 06:43:59;;;;;;;;;10.25;6.00;;;;;18.42;68.19;100389.50;5099453;27;45276;-53
2022/10/20 06:46:29;;;;;;;;;5.75;4.00;;;;;18.43;67.94;100387.69;5081916;27;45407;-53
2022/10/20 06:48:55;;;;;;;;;7.75;5.25;;;;;18.44;67.86;100400.00;5098269;27;45705;-52
2022/10/20 06:51:21;;;;;;;;;7.75;5.00;;;;;18.42;68.29;100409.84;5083974;27;45383;-49
2022/10/20 06:53:47;;;;;;;;;7.00;6.00;;;;;18.43;68.58;100427.44;5097908;27;65308;-51
2022/10/20 06:56:21;;;;;;;;;7.25;7.00;;;;;18.44;68.63;100437.94;5094168;27;45307;-50
2022/10/20 06:58:49;;;;;;;;;5.25;5.00;;;;;18.46;68.49;100448.44;5102723;27;46329;-54
2022/10/20 07:01:40;;;;;;;;;8.50;6.00;;;;;18.51;68.86;100463.06;5103822;27;45308;-52
2022/10/20 07:04:09;;;;;;;;;9.75;6.25;;;;;18.54;68.57;100480.59;5083833;27;45363;-52
2022/10/20 07:06:37;;;;;;;;;7.50;6.50;;;;;18.54;68.52;100493.84;5087153;27;45641;-53
2022/10/20 07:09:04;;;;;;;;;6.25;5.50;;;;;18.55;68.62;100496.38;5091975;27;45356;-53
2022/10/20 07:11:30;;;;;;;;;7.50;5.00;;;;;18.58;68.25;100503.28;5100554;27;45226;-54
2022/10/20 07:14:00;;;;;;;;;9.50;6.75;;;;;18.60;68.39;100514.63;5101710;27;45427;-51
2022/10/20 07:16:28;;;;;;;;;4.75;4.00;;;;;18.63;68.10;100511.81;5099256;27;45455;-53
2022/10/20 07:18:56;;;;;;;;;7.00;4.25;;;;;18.64;68.11;100513.47;5071559;27;48317;-50
2022/10/20 07:21:25;;;;;;;;;6.25;4.00;;;;;18.65;67.86;100511.72;5093623;27;45714;-54
2022/10/20 07:23:51;;;;;;;;;8.00;5.00;;;;;18.65;68.08;100512.56;5101089;27;45473;-51
2022/10/20 07:26:17;;;;;;;;;6.00;5.50;;;;;18.66;68.18;100516.03;5089180;27;45546;-50
2022/10/20 07:28:46;;;;;;;;;8.25;5.00;;;;;18.68;68.14;100524.75;5090034;27;45292;-50
2022/10/20 07:31:18;;;;;;;;;10.25;9.75;;;;;18.68;67.78;100517.66;5088491;27;46024;-49
2022/10/20 07:33:44;;;;;;;;;9.25;7.00;;;;;18.70;67.68;100522.88;5086135;27;45416;-52
2022/10/20 07:36:14;;;;;;;;;7.25;4.00;;;;;18.68;67.66;100533.56;5085674;27;72879;-50
2022/10/20 07:38:40;;;;;;;;;6.50;4.00;;;;;18.67;67.54;100526.53;5091103;27;46332;-53
2022/10/20 07:41:05;;;;;;;;;6.00;4.25;;;;;18.69;67.27;100523.81;5088985;27;45567;-53
2022/10/20 07:43:31;;;;;;;;;6.25;4.00;;;;;18.69;67.70;100527.28;5095703;27;51911;-51
2022/10/20 07:45:56;;;;;;;;;7.00;5.00;;;;;18.70;67.73;100526.34;5062453;28;66908;-54
2022/10/20 07:48:21;;;;;;;;;8.00;6.00;;;;;18.72;67.54;100527.09;5088191;27;74131;-50
2022/10/20 07:50:47;;;;;;;;;6.50;4.50;;;;;18.73;67.08;100526.16;5096623;27;45292;-53
2022/10/20 07:53:12;;;;;;;;;8.75;5.50;;;;;18.75;67.72;100526.03;5090137;27;60304;-52
2022/10/20 07:55:37;;;;;;;;;10.25;6.50;;;;;18.74;67.68;100519.91;5078737;27;69807;-53
2022/10/20 07:58:03;;;;;;;;;8.50;6.00;;;;;18.78;67.46;100524.03;5083407;27;60107;-54
2022/10/20 08:00:28;;;;;;;;;5.75;5.75;;;;;18.80;67.49;100518.66;5108794;27;45363;-53
2022/10/20 08:02:53;;;;;;;;;15.50;5.50;;;;;18.83;67.42;100525.59;5089262;27;54685;-53
2022/10/20 08:05:18;;;;;;;;;7.00;6.00;;;;;18.84;67.21;100524.63;5100536;27;70696;-53
2022/10/20 08:07:44;;;;;;;;;4.75;4.25;;;;;18.85;67.30;100515.75;5100908;27;45239;-54
2022/10/20 08:10:09;;;;;;;;;8.00;7.00;;;;;18.89;67.49;100523.41;5069674;27;53783;-50
2022/10/20 08:12:35;;;;;;;;;7.50;4.00;;;;;18.91;67.09;100524.16;5088414;27;45241;-51
2022/10/20 08:15:00;;;;;;;;;6.25;5.75;;;;;18.92;67.41;100517.88;5081850;27;45469;-55
2022/10/20 08:17:26;;;;;;;;;9.00;6.00;;;;;18.94;67.23;100515.97;5089242;27;46676;-54
2022/10/20 08:19:51;;;;;;;;;5.75;3.25;;;;;18.97;67.01;100507.81;5099299;27;45414;-51
2022/10/20 08:22:18;;;;;;;;;7.25;5.00;;;;;19.00;67.05;100514.75;5091392;27;59357;-53
2022/10/20 08:24:44;;;;;;;;;5.25;5.25;;;;;19.03;67.21;100503.91;5089139;27;45457;-54
2022/10/20 08:27:09;;;;;;;;;8.00;5.50;;;;;19.08;67.28;100504.47;5093294;27;46408;-51
2022/10/20 08:29:35;;;;;;;;;6.75;5.50;;;;;19.11;66.69;100506.91;5086363;27;45405;-54
2022/10/20 08:32:00;;;;;;;;;4.75;4.00;;;;;19.14;66.83;100512.03;5095031;27;45371;-55
2022/10/20 08:34:26;;;;;;;;;7.25;6.00;;;;;19.18;66.36;100517.13;5101077;27;65017;-54
2022/10/20 08:36:51;;;;;;;;;4.50;4.00;;;;;19.21;66.22;100519.56;5093577;27;45420;-54
2022/10/20 08:39:17;;;;;;;;;10.75;5.50;;;;;19.28;66.52;100534.13;5061547;28;45292;-51
2022/10/20 08:41:45;;;;;;;;;60.50;45.00;;;;;19.31;66.44;100529.44;5106663;27;45278;-53
2022/10/20 08:44:17;;;;;;;;;11.75;11.50;;;;;19.33;65.99;100522.22;5084008;27;45226;-57
2022/10/20 08:46:42;;;;;;;;;10.25;5.25;;;;;19.38;66.07;100521.09;5101275;27;47228;-51
2022/10/20 08:49:17;;;;;;;;;7.75;6.00;;;;;19.41;65.82;100521.75;5083344;27;45288;-50
2022/10/20 08:51:42;;;;;;;;;8.75;5.50;;;;;19.44;65.90;100529.50;5088956;27;45347;-55
2022/10/20 08:54:14;;;;;;;;;6.25;5.75;;;;;19.46;65.77;100529.38;5097613;27;45320;-53
2022/10/20 08:56:39;;;;;;;;;7.00;7.00;;;;;19.48;65.78;100535.44;5076930;27;48070;-53
2022/10/20 08:59:22;;;;;;;;;15.50;8.00;;;;;19.50;65.78;100526.41;5080845;27;45353;-53
2022/10/20 09:01:48;;;;;;;;;5.00;4.50;;;;;19.51;65.91;100522.81;5095178;27;45588;-55
2022/10/20 09:04:46;;;;;;;;;9.75;7.00;;;;;19.56;65.73;100530.44;5070155;28;73426;-51
2022/10/20 09:07:22;;;;;;;;;10.75;6.25;;;;;19.57;65.25;100526.00;5063877;27;45983;-56
2022/10/20 09:09:47;;;;;;;;;4.75;4.00;;;;;19.58;65.67;100531.19;5076961;27;45481;-53
2022/10/20 09:12:14;;;;;;;;;8.00;5.25;;;;;19.61;65.51;100533.66;5104306;27;60384;-55
2022/10/20 09:14:39;;;;;;;;;8.75;7.25;;;;;19.63;65.58;100523.78;5061101;27;45333;-53
2022/10/20 09:17:13;;;;;;;;;10.00;8.50;;;;;19.67;65.10;100532.38;5100373;27;46158;-53
2022/10/20 09:19:43;;;;;;;;;11.25;6.75;;;;;19.66;64.95;100528.03;5079258;28;45281;-54
2022/10/20 09:22:12;;;;;;;;;8.75;6.00;;;;;19.66;65.07;100528.03;5094477;27;45441;-56
2022/10/20 09:24:38;;;;;;;;;46.00;36.50;;;;;19.66;65.36;100523.56;5065119;27;59930;-56
2022/10/20 09:27:19;;;;;;;;;12.75;10.25;;;;;19.68;65.24;100526.97;5082953;27;46116;-55
2022/10/20 09:29:44;;;;;;;;;11.75;8.50;;;;;19.71;64.86;100521.44;5090943;27;45287;-55
2022/10/20 09:32:32;;;;;;;;;7.50;5.00;;;;;19.71;64.94;100521.44;5098979;27;67227;-56
2022/10/20 09:35:26;;;;;;;;;8.00;5.50;;;;;19.73;64.93;100514.25;5072219;28;45290;-55
2022/10/20 09:37:56;;;;;;;;;7.25;4.00;;;;;19.73;64.83;100516.91;5046771;28;45532;-55
2022/10/20 09:40:23;;;;;;;;;4.25;2.00;;;;;19.76;64.39;100507.03;5047392;28;45357;-54
2022/10/20 09:42:52;;;;;;;;;20.75;19.25;;;;;19.77;64.73;100508.75;5052210;28;45473;-53
2022/10/20 09:45:51;;;;;;;;;18.50;15.25;;;;;19.80;64.34;100509.38;5063203;28;45469;-53
2022/10/20 09:48:21;;;;;;;;;8.00;6.00;;;;;19.81;64.61;100512.88;5045586;28;45643;-54
2022/10/20 09:50:50;;;;;;;;;16.50;12.00;;;;;19.84;64.10;100504.69;5036938;28;45998;-55
2022/10/20 09:53:22;;;;;;;;;15.50;12.25;;;;;19.87;64.50;100509.81;5028733;28;45410;-54
2022/10/20 09:55:49;;;;;;;;;13.50;9.00;;;;;19.89;64.20;100508.72;5061895;28;45548;-54
2022/10/20 09:58:20;;;;;;;;;4.00;3.00;;;;;19.91;63.56;100509.47;5052730;28;46415;-55
2022/10/20 10:00:55;;;;;;;;;3.50;3.00;;;;;19.91;63.58;100512.13;5046441;28;45262;-53
2022/10/20 10:03:22;;;;;;;;;4.50;3.00;;;;;19.96;64.12;100516.28;5060034;27;45333;-54
2022/10/20 10:05:58;;;;;;;;;5.25;4.00;;;;;19.98;63.77;100503.75;5048242;28;45199;-54
2022/10/20 10:08:27;;;;;;;;;6.00;4.00;;;;;20.00;63.80;100510.63;5055309;28;46303;-55
2022/10/20 10:11:04;;;;;;;;;3.00;3.00;;;;;20.04;63.66;100506.81;5045892;28;45799;-53
2022/10/20 10:13:34;;;;;;;;;6.75;4.25;;;;;20.09;63.32;100512.63;5052710;28;45342;-51
2022/10/20 10:16:12;;;;;;;;;4.00;4.00;;;;;20.14;63.58;100504.34;5057852;28;45400;-55
2022/10/20 10:18:38;;;;;;;;;7.25;4.00;;;;;20.16;63.50;100502.44;5048784;28;46490;-51
2022/10/20 10:21:07;;;;;;;;;7.00;4.75;;;;;20.20;62.83;100508.38;5053764;28;45490;-55
2022/10/20 10:23:39;;;;;;;;;4.00;3.50;;;;;20.24;63.07;100499.25;5072258;28;45308;-51
2022/10/20 10:26:31;;;;;;;;;5.25;3.50;;;;;20.27;62.89;100502.53;5059215;28;45296;-54
2022/10/20 10:28:57;;;;;;;;;4.75;4.75;;;;;20.33;62.23;100497.72;5053361;28;46385;-55
2022/10/20 10:31:24;;;;;;;;;5.50;4.25;;;;;20.37;62.70;100502.72;5056020;28;45308;-55
2022/10/20 10:33:53;;;;;;;;;5.75;3.50;;;;;20.41;62.53;100485.56;5055104;28;45558;-52
2022/10/20 10:36:27;;;;;;;;;8.00;5.00;;;;;20.48;61.91;100491.31;5089557;27;45483;-54
2022/10/20 10:38:52;;;;;;;;;11.75;9.75;;;;;20.51;62.12;100493.75;5080286;27;46734;-50
2022/10/20 10:41:49;;;;;;;;;7.50;5.00;;;;;20.55;61.50;100491.72;5099382;27;69524;-52
2022/10/20 10:44:48;;;;;;;;;6.75;5.50;;;;;20.60;61.52;100486.91;5086555;27;45509;-55
2022/10/20 10:47:22;;;;;;;;;6.00;5.25;;;;;20.62;61.37;100479.69;5090913;27;45348;-55
2022/10/20 10:49:53;;;;;;;;;7.00;4.00;;;;;20.62;61.14;100477.88;5074674;27;47154;-53
2022/10/20 10:52:29;;;;;;;;;6.00;6.00;;;;;20.64;60.21;100483.09;5089914;27;45241;-49
2022/10/20 10:55:37;;;;;;;;;6.25;5.50;;;;;20.66;60.83;100468.72;5077768;27;45332;-53
2022/10/20 10:58:36;;;;;;;;;4.00;4.00;;;;;20.70;60.28;100464.03;5002969;28;45503;-53
2022/10/20 11:01:17;;;;;;;;;5.00;4.75;;;;;20.77;59.93;100457.31;4999807;28;45624;-52
2022/10/20 11:04:05;;;;;;;;;6.75;4.50;;;;;20.85;59.56;100457.56;5058100;27;45500;-52
2022/10/20 11:06:44;;;;;;;;;11.25;10.00;;;;;20.91;60.00;100456.28;5098686;27;45361;-53
2022/10/20 11:09:32;;;;;;;;;9.50;7.75;;;;;20.95;59.16;100455.06;5087027;27;45469;-55
2022/10/20 11:12:05;;;;;;;;;7.25;5.00;;;;;21.01;58.67;100456.41;5070261;27;47167;-56
2022/10/20 11:14:48;;;;;;;;;3.00;3.00;;;;;21.00;58.63;100447.59;5079120;27;45254;-55
2022/10/20 11:17:24;;;;;;;;;3.50;3.00;;;;;21.01;58.26;100443.94;5080043;27;45264;-57
2022/10/20 11:20:06;;;;;;;;;3.50;3.00;;;;;21.02;58.31;100436.84;5082993;27;45439;-58
2022/10/20 11:23:09;;;;;;;;;4.50;4.00;;;;;21.02;57.85;100435.03;5099471;27;46296;-57
2022/10/20 11:25:47;;;;;;;;;5.00;4.00;;;;;21.04;58.19;100434.91;5097344;27;45601;-61
2022/10/20 11:28:43;;;;;;;;;3.25;3.00;;;;;21.03;57.87;100431.41;5096970;27;45162;-57
2022/10/20 11:31:18;;;;;;;;;3.00;2.00;;;;;21.03;57.71;100427.88;5078293;27;45287;-56